East Middlebury, Vermont
Current Conditions -  °F | °C
As of 10:55 PM on Saturday 25 Oct 2014 (Local Time) from K6B0 Reporting Station
Broken Clouds Broken Clouds  
Wind Chill: 10°   Ceiling: 7000
Heat Index: 10°   Visibility: 10mi
Dew Point: 10°   Wind: 0mph
Humidity: 100%   Direction: NA
Pressure: 29.49"   Gusts: NA
Location:  43.97°N, 73.11°W
Report Text: K6B0 260255Z AUTO 00000KT 10SM SCT032 SCT041 BKN070 10/10 A2949 RMK AO2 LTG DSNT N T01000100
Loading
Personal Weather Stations






























Interactive Weather Map
Tropical Storm Tracking
New forecast layout! Learn more

10-Day Weather Forecast

Advertisements
Track Severe Weather on mobile